Time;durP1;ratioP1;P1;durP2;ratioP2;P2;SDS_P1;SDS_P2;PMS_P1;PMS_P2;Temp;Humidity;BMP_temperature;BMP_pressure;BME280_temperature;BME280_humidity;BME280_pressure;Samples;Min_cycle;Max_cycle;Signal;HPM_P1;HPM_P2
2023/05/27 00:01:18;;;;;;;16.40;4.27;;;11.00;99.90;;;;;;5134387;27;20165;-49
2023/05/27 00:03:45;;;;;;;17.93;4.93;;;10.90;99.90;;;;;;5134176;27;20189;-49
2023/05/27 00:06:11;;;;;;;15.13;3.77;;;10.90;99.90;;;;;;5134265;28;20182;-49
2023/05/27 00:08:36;;;;;;;16.17;4.80;;;10.90;99.90;;;;;;5134288;28;20177;-48
2023/05/27 00:11:02;;;;;;;16.20;4.47;;;10.90;99.90;;;;;;5134225;28;20174;-50
2023/05/27 00:13:28;;;;;;;16.23;4.80;;;10.90;99.90;;;;;;5134153;28;20310;-50
2023/05/27 00:15:53;;;;;;;16.07;4.70;;;10.90;99.90;;;;;;5134667;27;20557;-49
2023/05/27 00:18:20;;;;;;;12.77;4.33;;;10.80;99.90;;;;;;5137926;27;20170;-51
2023/05/27 00:20:45;;;;;;;11.60;4.03;;;10.80;99.90;;;;;;5138739;27;20634;-48
2023/05/27 00:23:11;;;;;;;17.13;4.77;;;10.70;99.90;;;;;;5138419;27;20232;-50
2023/05/27 00:25:36;;;;;;;18.27;5.17;;;10.70;99.90;;;;;;5120028;27;20168;-51
2023/05/27 00:28:02;;;;;;;16.27;5.00;;;10.60;99.90;;;;;;5138300;27;20248;-44
2023/05/27 00:30:27;;;;;;;11.73;4.53;;;10.50;99.90;;;;;;5138204;27;20178;-43
2023/05/27 00:32:53;;;;;;;12.77;4.43;;;10.40;99.90;;;;;;5138150;27;20213;-42
2023/05/27 00:35:19;;;;;;;15.67;4.57;;;10.40;99.90;;;;;;5138508;27;20730;-43
2023/05/27 00:37:45;;;;;;;18.17;5.33;;;10.30;99.90;;;;;;5138249;27;20574;-44
2023/05/27 00:40:11;;;;;;;15.87;4.80;;;10.20;99.90;;;;;;5138614;27;20186;-43
2023/05/27 00:42:37;;;;;;;18.30;5.70;;;10.20;99.90;;;;;;5137942;27;20179;-44
2023/05/27 00:45:03;;;;;;;26.50;5.40;;;10.20;99.90;;;;;;5138302;27;20201;-43
2023/05/27 00:47:32;;;;;;;14.03;4.57;;;10.10;99.90;;;;;;5137943;27;20216;-43
2023/05/27 00:49:57;;;;;;;14.27;4.77;;;10.10;99.90;;;;;;5137780;27;20186;-43
2023/05/27 00:52:24;;;;;;;18.03;5.03;;;10.10;99.90;;;;;;5138094;27;20181;-42
2023/05/27 00:54:51;;;;;;;15.80;5.30;;;10.00;99.90;;;;;;5137834;27;20567;-45
2023/05/27 00:57:17;;;;;;;17.00;4.73;;;10.00;99.90;;;;;;5137982;27;20276;-45
2023/05/27 00:59:43;;;;;;;18.10;4.93;;;10.00;99.90;;;;;;5137616;27;20684;-43
2023/05/27 01:02:08;;;;;;;18.50;5.03;;;10.00;99.90;;;;;;5137652;27;20205;-43
2023/05/27 01:04:34;;;;;;;11.87;4.63;;;10.00;99.90;;;;;;5137589;27;20557;-43
2023/05/27 01:07:09;;;;;;;14.70;4.37;;;9.90;99.90;;;;;;5138102;27;20177;-42
2023/05/27 01:09:49;;;;;;;14.87;4.53;;;9.90;99.90;;;;;;5137564;27;20165;-43
2023/05/27 01:12:36;;;;;;;15.07;5.07;;;9.90;99.90;;;;;;5137549;27;20162;-44
2023/05/27 01:15:05;;;;;;;14.33;4.33;;;9.90;99.90;;;;;;5137418;27;20284;-44
2023/05/27 01:17:31;;;;;;;14.37;4.33;;;9.80;99.90;;;;;;5138713;27;20178;-43
2023/05/27 01:19:59;;;;;;;16.07;4.50;;;9.80;99.90;;;;;;5138275;27;20624;-44
2023/05/27 01:22:31;;;;;;;17.90;4.37;;;9.80;99.90;;;;;;5139956;27;20511;-43
2023/05/27 01:24:57;;;;;;;12.27;3.73;;;9.70;99.90;;;;;;5147828;27;20227;-44
2023/05/27 01:27:26;;;;;;;13.33;4.77;;;9.70;99.90;;;;;;5149308;27;20177;-43
2023/05/27 01:29:53;;;;;;;16.77;4.73;;;9.70;99.90;;;;;;5140754;27;20178;-42
2023/05/27 01:32:21;;;;;;;13.27;4.63;;;9.70;99.90;;;;;;5137346;27;20196;-43
2023/05/27 01:34:58;;;;;;;18.13;4.50;;;9.60;99.90;;;;;;5137516;27;20201;-50
2023/05/27 01:37:26;;;;;;;12.43;3.97;;;9.60;99.90;;;;;;5137341;27;20165;-49
2023/05/27 01:39:52;;;;;;;16.90;4.70;;;9.60;99.90;;;;;;5136936;27;20197;-48
2023/05/27 01:42:20;;;;;;;17.90;4.83;;;9.60;99.90;;;;;;5136976;27;20680;-49
2023/05/27 01:44:46;;;;;;;11.17;4.33;;;9.70;99.90;;;;;;5136780;27;20201;-48
2023/05/27 01:47:12;;;;;;;18.33;5.30;;;9.60;99.90;;;;;;5136751;27;20178;-50
2023/05/27 01:49:37;;;;;;;13.07;4.53;;;9.60;99.90;;;;;;5136720;27;20246;-50
2023/05/27 01:52:03;;;;;;;11.10;3.70;;;9.60;99.90;;;;;;5118214;27;20195;-51
2023/05/27 01:54:29;;;;;;;12.20;4.23;;;9.60;99.90;;;;;;5136474;27;20304;-51
2023/05/27 01:56:54;;;;;;;20.17;4.80;;;9.70;99.90;;;;;;5136527;27;20178;-49
2023/05/27 01:59:20;;;;;;;15.73;4.50;;;9.70;99.90;;;;;;5118113;27;20185;-48
2023/05/27 02:01:46;;;;;;;14.20;5.37;;;9.60;99.90;;;;;;5136547;27;20178;-48
2023/05/27 02:04:11;;;;;;;13.43;4.63;;;9.60;99.90;;;;;;5136359;27;20231;-48
2023/05/27 02:06:37;;;;;;;15.83;4.47;;;9.70;99.90;;;;;;5136585;27;20188;-50
2023/05/27 02:09:03;;;;;;;17.90;4.47;;;9.60;99.90;;;;;;5136880;27;20636;-49
2023/05/27 02:11:29;;;;;;;14.53;4.33;;;9.60;99.90;;;;;;5137244;27;20630;-50
2023/05/27 02:13:55;;;;;;;14.43;5.13;;;9.60;99.90;;;;;;5136202;27;20223;-50
2023/05/27 02:16:21;;;;;;;15.03;3.87;;;9.60;99.90;;;;;;5136215;27;20176;-51
2023/05/27 02:18:50;;;;;;;18.27;3.90;;;9.60;99.90;;;;;;5136481;27;20264;-49
2023/05/27 02:21:15;;;;;;;16.27;5.30;;;9.60;99.90;;;;;;5136339;27;20205;-49
2023/05/27 02:23:41;;;;;;;15.70;4.97;;;9.60;99.90;;;;;;5117966;27;20243;-49
2023/05/27 02:26:07;;;;;;;17.67;4.30;;;9.60;99.90;;;;;;5136877;27;20237;-50
2023/05/27 02:28:32;;;;;;;18.17;4.67;;;9.50;99.90;;;;;;5136154;27;20181;-49
2023/05/27 02:30:59;;;;;;;19.00;4.50;;;9.50;99.90;;;;;;5136374;27;20169;-52
2023/05/27 02:33:25;;;;;;;18.47;4.50;;;9.40;99.90;;;;;;5135823;27;20209;-51
2023/05/27 02:35:50;;;;;;;14.80;4.67;;;9.40;99.90;;;;;;5136070;27;20216;-50
2023/05/27 02:38:16;;;;;;;16.40;4.60;;;9.40;99.90;;;;;;5136009;27;20204;-51
2023/05/27 02:40:41;;;;;;;18.40;5.13;;;9.40;99.90;;;;;;5135301;27;20169;-49
2023/05/27 02:43:08;;;;;;;16.93;4.57;;;9.40;99.90;;;;;;5135540;27;20204;-50
2023/05/27 02:45:33;;;;;;;18.03;4.83;;;9.30;99.90;;;;;;5136487;27;20655;-50
2023/05/27 02:48:01;;;;;;;17.07;4.97;;;9.30;99.90;;;;;;5135852;27;20209;-50
2023/05/27 02:50:27;;;;;;;14.63;4.53;;;9.20;99.90;;;;;;5135548;27;20649;-49
2023/05/27 02:52:52;;;;;;;28.63;5.57;;;9.20;99.90;;;;;;5135859;27;20200;-50
2023/05/27 02:55:18;;;;;;;11.47;4.57;;;9.20;99.90;;;;;;5117687;27;20211;-49
2023/05/27 02:57:44;;;;;;;15.87;4.33;;;9.10;99.90;;;;;;5136982;27;20177;-50
2023/05/27 03:00:11;;;;;;;15.03;4.77;;;9.10;99.90;;;;;;5135632;27;20176;-47
2023/05/27 03:02:37;;;;;;;16.20;4.30;;;9.00;99.90;;;;;;5135731;27;20192;-48
2023/05/27 03:05:03;;;;;;;22.17;4.73;;;9.00;99.90;;;;;;5135259;27;20180;-48
2023/05/27 03:07:29;;;;;;;16.37;4.83;;;9.00;99.90;;;;;;5135385;27;20196;-48
2023/05/27 03:09:56;;;;;;;16.80;4.03;;;8.90;99.90;;;;;;5135489;27;20656;-50
2023/05/27 03:12:22;;;;;;;16.07;4.33;;;8.90;99.90;;;;;;5135065;27;20178;-47
2023/05/27 03:14:48;;;;;;;19.37;4.53;;;8.80;99.90;;;;;;5116430;27;20209;-48
2023/05/27 03:17:14;;;;;;;15.23;5.17;;;8.80;99.90;;;;;;5134978;27;20251;-49
2023/05/27 03:19:40;;;;;;;12.17;4.30;;;8.80;99.90;;;;;;5134909;27;20184;-49
2023/05/27 03:22:06;;;;;;;13.33;4.17;;;8.80;99.90;;;;;;5135256;27;20175;-48
2023/05/27 03:24:33;;;;;;;22.40;5.70;;;8.70;99.90;;;;;;5135033;27;20201;-47
2023/05/27 03:26:59;;;;;;;13.67;4.57;;;8.70;99.90;;;;;;5134844;27;20176;-49
2023/05/27 03:29:25;;;;;;;17.30;5.03;;;8.70;99.90;;;;;;5135834;27;20264;-48
2023/05/27 03:31:50;;;;;;;17.27;5.27;;;8.70;99.90;;;;;;5134800;27;20213;-49
2023/05/27 03:34:16;;;;;;;15.10;5.03;;;8.60;99.90;;;;;;5134472;27;20563;-47
2023/05/27 03:36:46;;;;;;;16.60;5.00;;;8.60;99.90;;;;;;5135566;27;20178;-50
2023/05/27 03:39:14;;;;;;;15.93;5.10;;;8.60;99.90;;;;;;5134899;27;20186;-48
2023/05/27 03:41:40;;;;;;;17.30;4.83;;;8.60;99.90;;;;;;5134597;27;20598;-49
2023/05/27 03:44:05;;;;;;;10.87;4.50;;;8.60;99.90;;;;;;5134792;27;20230;-47
2023/05/27 03:46:32;;;;;;;16.37;4.57;;;8.50;99.90;;;;;;5135157;27;20200;-48
2023/05/27 03:48:58;;;;;;;11.70;4.10;;;8.50;99.90;;;;;;5134687;27;20297;-47
2023/05/27 03:51:24;;;;;;;23.00;4.90;;;8.50;99.90;;;;;;5133745;27;20210;-47
2023/05/27 03:53:50;;;;;;;16.13;5.33;;;8.40;99.90;;;;;;5134524;27;20235;-48
2023/05/27 03:56:16;;;;;;;18.93;5.50;;;8.50;99.90;;;;;;5134416;27;20700;-47
2023/05/27 03:58:41;;;;;;;18.90;5.53;;;8.50;99.90;;;;;;5134677;27;20578;-48
2023/05/27 04:01:08;;;;;;;14.30;4.60;;;8.40;99.90;;;;;;5134368;27;20698;-47
2023/05/27 04:03:33;;;;;;;14.43;5.33;;;8.40;99.90;;;;;;5134461;27;20210;-47
2023/05/27 04:05:59;;;;;;;16.23;5.50;;;8.40;99.90;;;;;;5134283;27;20186;-47
2023/05/27 04:08:27;;;;;;;20.53;5.20;;;8.40;99.90;;;;;;5134457;27;20180;-51
2023/05/27 04:10:56;;;;;;;14.90;5.27;;;8.40;99.90;;;;;;5134250;28;20188;-47
2023/05/27 04:13:22;;;;;;;15.57;4.50;;;8.40;99.90;;;;;;5134596;28;20202;-47
2023/05/27 04:15:48;;;;;;;18.03;4.97;;;8.40;99.90;;;;;;5134163;28;20559;-48
2023/05/27 04:18:14;;;;;;;17.50;5.13;;;8.40;99.90;;;;;;5134122;28;20670;-47
2023/05/27 04:20:42;;;;;;;22.27;6.33;;;8.40;99.90;;;;;;5134389;28;20170;-48
2023/05/27 04:23:09;;;;;;;18.07;5.13;;;8.40;99.90;;;;;;5134281;28;20286;-47
2023/05/27 04:25:35;;;;;;;16.37;4.77;;;8.40;99.90;;;;;;5134406;28;20175;-49
2023/05/27 04:28:04;;;;;;;18.57;5.53;;;8.50;99.90;;;;;;5134369;28;20192;-48
2023/05/27 04:30:31;;;;;;;15.63;5.70;;;8.50;99.90;;;;;;5134414;28;20212;-47
2023/05/27 04:32:56;;;;;;;15.83;4.77;;;8.50;99.90;;;;;;5134247;28;20224;-48
2023/05/27 04:35:23;;;;;;;18.37;5.50;;;8.50;99.90;;;;;;5135573;28;20207;-48
2023/05/27 04:37:48;;;;;;;17.00;5.63;;;8.50;99.90;;;;;;5135418;28;20177;-49
2023/05/27 04:40:14;;;;;;;18.33;5.47;;;8.60;99.90;;;;;;5134031;28;20580;-48
2023/05/27 04:42:39;;;;;;;18.17;5.57;;;8.60;99.90;;;;;;5133899;28;20536;-49
2023/05/27 04:45:06;;;;;;;21.57;4.90;;;8.70;99.90;;;;;;5133972;28;20192;-47
2023/05/27 04:47:37;;;;;;;15.70;4.97;;;8.70;99.90;;;;;;5133880;28;20263;-48
2023/05/27 04:50:04;;;;;;;22.37;6.80;;;8.70;99.90;;;;;;5134183;28;20198;-49
2023/05/27 04:52:36;;;;;;;20.80;5.67;;;8.80;99.90;;;;;;5134467;28;20186;-49
2023/05/27 04:55:05;;;;;;;14.63;5.73;;;8.70;99.90;;;;;;5133744;28;20678;-48
2023/05/27 04:57:31;;;;;;;15.63;5.63;;;8.80;99.90;;;;;;5133758;28;20174;-49
2023/05/27 05:00:49;;;;;;;13.30;5.10;;;8.90;99.90;;;;;;5134012;28;20174;-50
2023/05/27 05:02:47;;;;;;;13.87;4.87;;;9.00;99.90;;;;;;5126028;27;20202;-49
2023/05/27 05:05:13;;;;;;;26.77;6.33;;;8.90;99.90;;;;;;5137903;27;20185;-49
2023/05/27 05:07:41;;;;;;;17.23;6.03;;;9.00;99.90;;;;;;5137830;27;20186;-49
2023/05/27 05:10:07;;;;;;;17.87;6.57;;;9.00;99.90;;;;;;5137545;27;20182;-49
2023/05/27 05:12:32;;;;;;;18.60;5.43;;;9.10;99.90;;;;;;5137542;27;20182;-49
2023/05/27 05:14:58;;;;;;;19.93;6.50;;;9.10;99.90;;;;;;5119313;27;20568;-43
2023/05/27 05:17:25;;;;;;;19.03;5.97;;;9.10;99.90;;;;;;5137574;27;20518;-48
2023/05/27 05:19:51;;;;;;;22.60;6.07;;;9.20;99.90;;;;;;5137537;27;20201;-42
2023/05/27 05:22:22;;;;;;;18.20;5.73;;;9.20;99.90;;;;;;5137581;27;20230;-44
2023/05/27 05:24:49;;;;;;;22.77;6.97;;;9.30;99.90;;;;;;5137331;27;20206;-44
2023/05/27 05:27:15;;;;;;;19.57;6.20;;;9.30;99.90;;;;;;5137191;27;20246;-43
2023/05/27 05:29:40;;;;;;;14.33;6.17;;;9.40;99.90;;;;;;5137441;27;20186;-43
2023/05/27 05:32:10;;;;;;;19.67;6.73;;;9.40;99.90;;;;;;5137755;27;20186;-44
2023/05/27 05:34:36;;;;;;;18.80;5.83;;;9.50;99.90;;;;;;5136945;27;20274;-45
2023/05/27 05:37:02;;;;;;;16.77;5.67;;;9.50;99.90;;;;;;5137030;27;20627;-44
2023/05/27 05:39:28;;;;;;;15.30;5.43;;;9.60;99.90;;;;;;5136971;27;20175;-43
2023/05/27 05:41:53;;;;;;;18.93;5.43;;;9.60;99.90;;;;;;5137453;27;20207;-40
2023/05/27 05:44:19;;;;;;;17.20;5.80;;;9.70;99.90;;;;;;5137364;27;20210;-43
2023/05/27 05:46:44;;;;;;;13.77;5.77;;;9.80;99.90;;;;;;5118425;27;20193;-41
2023/05/27 05:49:10;;;;;;;22.63;6.07;;;9.80;99.90;;;;;;5137109;27;20620;-45
2023/05/27 05:51:36;;;;;;;21.03;5.83;;;9.90;99.90;;;;;;5136783;27;20180;-44
2023/05/27 05:54:01;;;;;;;21.43;5.87;;;9.90;99.90;;;;;;5136612;27;20204;-43
2023/05/27 05:56:27;;;;;;;19.23;6.17;;;10.00;99.90;;;;;;5136626;27;20169;-45
2023/05/27 05:58:53;;;;;;;16.23;5.00;;;10.10;99.90;;;;;;5136606;27;20173;-43
2023/05/27 06:01:18;;;;;;;21.47;6.37;;;10.10;99.90;;;;;;5136567;27;20173;-43
2023/05/27 06:03:44;;;;;;;18.57;5.47;;;10.20;99.90;;;;;;5136476;27;20664;-43
2023/05/27 06:06:10;;;;;;;18.37;6.30;;;10.30;99.90;;;;;;5137016;27;20222;-43
2023/05/27 06:08:36;;;;;;;19.60;6.03;;;10.40;99.90;;;;;;5136718;27;20177;-43
2023/05/27 06:11:02;;;;;;;14.13;5.50;;;10.50;99.90;;;;;;5136270;27;20206;-44
2023/05/27 06:13:27;;;;;;;13.47;5.40;;;10.60;99.90;;;;;;5136445;27;20208;-41
2023/05/27 06:15:55;;;;;;;19.27;6.87;;;10.70;99.90;;;;;;5135956;27;20590;-43
2023/05/27 06:18:21;;;;;;;19.40;5.33;;;10.70;99.90;;;;;;5136276;27;20200;-41
2023/05/27 06:20:46;;;;;;;14.03;5.73;;;10.80;99.90;;;;;;5136205;27;20266;-42
2023/05/27 06:23:12;;;;;;;22.73;6.10;;;11.10;99.90;;;;;;5136060;27;20254;-43
2023/05/27 06:25:37;;;;;;;18.63;5.90;;;11.10;99.90;;;;;;5136091;27;20717;-44
2023/05/27 06:28:03;;;;;;;13.73;5.67;;;11.20;99.90;;;;;;5136324;27;20181;-44
2023/05/27 06:30:28;;;;;;;21.73;6.00;;;11.40;99.90;;;;;;5117613;27;20661;-42
2023/05/27 06:32:54;;;;;;;18.80;5.80;;;11.70;99.90;;;;;;5135753;27;20240;-43
2023/05/27 06:35:20;;;;;;;19.40;6.00;;;11.90;99.90;;;;;;5135847;27;20226;-43
2023/05/27 06:37:45;;;;;;;14.33;6.00;;;12.00;99.90;;;;;;5135997;27;20173;-45
2023/05/27 06:40:11;;;;;;;19.13;6.10;;;12.10;99.90;;;;;;5117483;27;20207;-44
2023/05/27 06:42:37;;;;;;;18.57;5.57;;;12.20;99.90;;;;;;5135674;27;20186;-42
2023/05/27 06:45:03;;;;;;;20.03;5.80;;;12.40;99.90;;;;;;5135747;27;20211;-45
2023/05/27 06:47:29;;;;;;;15.50;5.40;;;12.40;99.90;;;;;;5135735;27;20208;-43
2023/05/27 06:49:54;;;;;;;21.80;6.10;;;12.50;99.90;;;;;;5136012;27;20268;-43
2023/05/27 06:52:21;;;;;;;14.37;5.50;;;12.50;99.90;;;;;;5135824;27;20177;-45
2023/05/27 06:54:47;;;;;;;15.60;5.40;;;12.70;99.90;;;;;;5135406;27;20609;-45
2023/05/27 06:57:13;;;;;;;19.93;6.20;;;13.00;99.90;;;;;;5135788;27;20198;-45
2023/05/27 06:59:39;;;;;;;19.00;5.50;;;13.40;99.90;;;;;;5135525;27;20203;-43
2023/05/27 07:02:06;;;;;;;13.67;5.33;;;13.60;99.90;;;;;;5135564;27;20583;-43
2023/05/27 07:04:32;;;;;;;19.17;4.97;;;13.90;99.90;;;;;;5135199;27;20201;-44
2023/05/27 07:06:57;;;;;;;18.13;5.17;;;14.00;99.90;;;;;;5135286;27;20197;-43
2023/05/27 07:09:23;;;;;;;21.87;6.43;;;14.20;99.90;;;;;;5135508;27;20260;-45
2023/05/27 07:11:49;;;;;;;16.07;5.07;;;14.30;99.90;;;;;;5135474;27;20626;-44
2023/05/27 07:14:15;;;;;;;14.40;4.73;;;14.30;99.90;;;;;;5134925;27;20201;-45
2023/05/27 07:16:40;;;;;;;24.00;5.53;;;14.60;99.90;;;;;;5135099;27;20255;-45
2023/05/27 07:19:06;;;;;;;18.77;5.20;;;14.90;99.90;;;;;;5116692;27;20174;-44
2023/05/27 07:21:32;;;;;;;14.77;5.73;;;15.10;99.90;;;;;;5135211;27;20179;-44
2023/05/27 07:24:02;;;;;;;21.60;5.97;;;15.10;99.90;;;;;;5135222;27;20276;-45
2023/05/27 07:26:31;;;;;;;18.63;5.07;;;15.20;99.90;;;;;;5135102;27;20613;-45
2023/05/27 07:29:00;;;;;;;18.73;5.67;;;15.30;99.90;;;;;;5135443;27;20173;-46
2023/05/27 07:31:27;;;;;;;9.70;4.97;;;15.60;99.90;;;;;;5135085;27;20714;-46
2023/05/27 07:33:53;;;;;;;14.13;4.90;;;15.80;99.90;;;;;;5134597;27;20604;-44
2023/05/27 07:36:19;;;;;;;15.33;4.37;;;16.10;99.90;;;;;;5134675;27;20181;-46
2023/05/27 07:38:44;;;;;;;11.00;4.60;;;16.30;99.90;;;;;;5134693;27;20158;-45
2023/05/27 07:41:11;;;;;;;15.50;5.23;;;16.50;99.90;;;;;;5134833;27;20569;-46
2023/05/27 07:43:36;;;;;;;16.43;4.90;;;16.50;99.90;;;;;;5134940;27;20186;-46
2023/05/27 07:46:02;;;;;;;21.13;5.30;;;16.60;99.90;;;;;;5134986;27;20226;-45
2023/05/27 07:48:28;;;;;;;19.87;4.73;;;16.60;99.90;;;;;;5134590;27;20186;-44
2023/05/27 07:50:54;;;;;;;17.23;4.60;;;16.70;99.90;;;;;;5134856;27;20181;-46
2023/05/27 07:53:20;;;;;;;15.03;4.70;;;16.80;99.90;;;;;;5134760;27;20248;-47
2023/05/27 07:55:46;;;;;;;16.90;4.60;;;16.90;99.90;;;;;;5135219;27;20224;-45
2023/05/27 07:58:12;;;;;;;13.83;5.57;;;17.10;99.90;;;;;;5134774;27;20571;-45
2023/05/27 08:00:38;;;;;;;14.93;4.90;;;17.30;99.90;;;;;;5135683;27;20170;-47
2023/05/27 08:03:03;;;;;;;15.63;5.33;;;17.40;99.90;;;;;;5138502;27;20245;-47
2023/05/27 08:05:29;;;;;;;11.37;4.93;;;17.50;99.90;;;;;;5141530;27;20258;-46
2023/05/27 08:07:55;;;;;;;17.87;6.10;;;17.60;99.90;;;;;;5135896;28;20314;-46
2023/05/27 08:10:20;;;;;;;14.70;4.77;;;17.70;99.90;;;;;;5134581;28;20181;-46
2023/05/27 08:12:46;;;;;;;22.13;5.73;;;17.80;99.90;;;;;;5134410;28;20282;-47
2023/05/27 08:15:12;;;;;;;12.57;4.40;;;18.00;99.90;;;;;;5134439;28;20202;-46
2023/05/27 08:17:38;;;;;;;9.87;4.77;;;18.20;99.90;;;;;;5134590;28;20173;-48
2023/05/27 08:20:04;;;;;;;12.27;4.53;;;18.30;99.90;;;;;;5134564;28;20201;-45
2023/05/27 08:22:31;;;;;;;17.20;5.20;;;18.40;99.90;;;;;;5134220;28;20200;-47
2023/05/27 08:24:56;;;;;;;15.43;4.40;;;18.40;99.90;;;;;;5134236;28;20181;-46
2023/05/27 08:27:46;;;;;;;13.43;4.47;;;18.50;99.90;;;;;;5134174;28;20181;-46
2023/05/27 08:30:13;;;;;;;15.07;4.63;;;18.70;99.90;;;;;;5134102;28;20166;-47
2023/05/27 08:32:40;;;;;;;18.17;5.20;;;18.90;99.90;;;;;;5133973;28;20672;-47
2023/05/27 08:35:06;;;;;;;11.73;4.50;;;18.90;99.90;;;;;;5134193;28;20216;-46
2023/05/27 08:37:32;;;;;;;13.13;5.20;;;18.90;99.90;;;;;;5135041;27;20201;-45
2023/05/27 08:39:57;;;;;;;17.10;4.70;;;19.00;99.90;;;;;;5138535;27;20645;-46
2023/05/27 08:42:24;;;;;;;11.27;5.07;;;19.10;99.90;;;;;;5138387;27;20587;-46
2023/05/27 08:44:50;;;;;;;15.87;4.47;;;19.00;99.90;;;;;;5138240;27;20211;-46
2023/05/27 08:47:16;;;;;;;12.33;3.90;;;18.80;99.90;;;;;;5138022;27;20240;-47
2023/05/27 08:49:41;;;;;;;17.13;5.30;;;18.80;99.90;;;;;;5137959;27;20262;-45
2023/05/27 08:52:10;;;;;;;13.10;4.60;;;18.90;99.90;;;;;;5137899;27;20178;-46
2023/05/27 08:54:37;;;;;;;12.03;4.30;;;19.00;99.90;;;;;;5137926;27;20213;-46
2023/05/27 08:57:07;;;;;;;18.10;5.10;;;19.00;99.90;;;;;;5137763;27;20176;-48
2023/05/27 08:59:34;;;;;;;15.17;5.00;;;18.90;99.90;;;;;;5138606;27;20215;-46
2023/05/27 09:02:02;;;;;;;20.53;4.73;;;18.90;99.90;;;;;;5138130;27;20614;-46
2023/05/27 09:04:28;;;;;;;13.63;4.20;;;18.70;99.90;;;;;;5137674;27;20691;-47
2023/05/27 09:06:53;;;;;;;14.70;4.77;;;18.70;99.90;;;;;;5137584;27;20266;-46
2023/05/27 09:09:20;;;;;;;16.47;5.20;;;18.70;99.90;;;;;;5137569;27;20182;-47
2023/05/27 09:11:45;;;;;;;12.90;4.40;;;18.80;99.90;;;;;;5137735;27;20182;-46
2023/05/27 09:14:22;;;;;;;13.17;4.33;;;19.10;99.90;;;;;;5137437;27;20572;-48
2023/05/27 09:16:48;;;;;;;17.87;5.20;;;19.30;99.90;;;;;;5137534;27;20162;-47
2023/05/27 09:19:18;;;;;;;13.57;4.23;;;19.20;99.90;;;;;;5137695;27;20481;-47
2023/05/27 09:21:43;;;;;;;15.27;5.17;;;19.40;99.90;;;;;;5118909;27;20173;-45
2023/05/27 09:24:10;;;;;;;13.20;4.60;;;19.70;99.90;;;;;;5118907;27;20531;-46
2023/05/27 09:26:37;;;;;;;15.43;4.47;;;19.80;99.90;;;;;;5137205;27;20177;-47
2023/05/27 09:29:09;;;;;;;18.63;4.50;;;20.00;99.90;;;;;;5137536;27;20181;-48
2023/05/27 09:31:41;;;;;;;13.90;4.77;;;20.10;99.90;;;;;;5137371;27;20165;-48
2023/05/27 09:34:16;;;;;;;18.77;5.07;;;20.20;99.90;;;;;;5136961;27;20216;-47
2023/05/27 09:36:47;;;;;;;10.30;4.03;;;20.20;99.90;;;;;;5137078;27;20624;-47
2023/05/27 09:39:14;;;;;;;17.67;4.43;;;20.30;99.90;;;;;;5137407;27;20158;-47
2023/05/27 09:41:41;;;;;;;12.63;4.03;;;20.30;99.90;;;;;;5137023;27;20199;-48
2023/05/27 09:44:07;;;;;;;13.83;4.27;;;20.20;99.90;;;;;;5136914;27;20213;-47
2023/05/27 09:46:33;;;;;;;10.63;3.87;;;20.20;99.90;;;;;;5136877;27;20686;-47
2023/05/27 09:49:00;;;;;;;16.30;4.70;;;20.20;99.90;;;;;;5135998;27;20629;-48
2023/05/27 09:51:29;;;;;;;15.97;4.27;;;20.40;99.90;;;;;;5136496;27;20198;-48
2023/05/27 09:53:58;;;;;;;17.60;5.37;;;20.50;99.90;;;;;;5136980;27;20193;-47
2023/05/27 09:56:28;;;;;;;19.13;4.20;;;20.60;99.90;;;;;;5136687;27;20177;-48
2023/05/27 09:58:57;;;;;;;14.37;4.43;;;20.50;99.90;;;;;;5136722;27;20158;-47
2023/05/27 10:01:28;;;;;;;9.83;3.60;;;20.40;99.90;;;;;;5137375;27;20166;-46
2023/05/27 10:03:54;;;;;;;12.97;4.00;;;20.50;99.90;;;;;;5138146;27;20725;-46
2023/05/27 10:06:21;;;;;;;12.93;4.47;;;20.50;99.90;;;;;;5137747;27;20629;-47
2023/05/27 10:08:47;;;;;;;12.93;3.77;;;20.70;99.90;;;;;;5136556;27;20177;-48
2023/05/27 10:11:13;;;;;;;11.53;3.80;;;20.80;99.90;;;;;;5136493;27;20182;-49
2023/05/27 10:13:39;;;;;;;11.97;4.60;;;20.80;99.90;;;;;;5136498;27;20209;-48
2023/05/27 10:16:05;;;;;;;10.83;4.23;;;20.90;99.90;;;;;;5136188;27;20201;-48
2023/05/27 10:18:33;;;;;;;13.20;4.10;;;21.10;99.90;;;;;;5136255;27;20245;-48
2023/05/27 10:21:03;;;;;;;10.67;4.30;;;20.90;99.90;;;;;;5136546;27;20170;-47
2023/05/27 10:23:30;;;;;;;11.23;4.47;;;20.70;99.90;;;;;;5136208;27;20213;-47
2023/05/27 10:26:01;;;;;;;14.50;4.37;;;20.60;99.90;;;;;;5136341;27;20180;-48
2023/05/27 10:28:29;;;;;;;14.57;4.37;;;20.60;99.90;;;;;;5136634;27;20196;-48
2023/05/27 10:31:07;;;;;;;15.17;4.53;;;20.70;99.90;;;;;;5136424;27;20181;-47
2023/05/27 10:33:43;;;;;;;15.07;5.37;;;20.70;99.90;;;;;;5135948;27;20720;-49
2023/05/27 10:36:14;;;;;;;11.80;4.33;;;20.80;99.90;;;;;;5136681;27;20177;-48
2023/05/27 10:38:41;;;;;;;15.27;4.60;;;20.90;99.90;;;;;;5135829;27;20154;-48
2023/05/27 10:41:08;;;;;;;15.33;4.90;;;21.00;99.90;;;;;;5136118;27;20668;-49
2023/05/27 10:43:34;;;;;;;15.67;4.60;;;21.00;99.90;;;;;;5117311;27;20602;-47
2023/05/27 10:46:07;;;;;;;16.10;4.67;;;21.20;99.90;;;;;;5135809;27;20174;-48
2023/05/27 10:48:33;;;;;;;15.20;4.67;;;21.30;99.90;;;;;;5136385;27;20246;-48
2023/05/27 10:50:59;;;;;;;20.00;4.97;;;21.40;99.90;;;;;;5135505;27;20649;-49
2023/05/27 10:53:27;;;;;;;14.93;5.03;;;21.50;99.90;;;;;;5135768;27;20196;-48
2023/05/27 10:55:53;;;;;;;18.70;4.83;;;21.70;99.90;;;;;;5135478;27;20204;-48
2023/05/27 10:58:20;;;;;;;16.40;5.10;;;21.80;99.90;;;;;;5135431;27;20170;-48
2023/05/27 11:00:51;;;;;;;14.20;4.60;;;21.90;99.90;;;;;;5135021;27;20170;-48
2023/05/27 11:03:22;;;;;;;15.30;4.80;;;21.70;99.90;;;;;;5135198;27;20224;-48
2023/05/27 11:06:00;;;;;;;11.97;4.47;;;21.60;99.90;;;;;;5135847;27;20210;-48
2023/05/27 11:08:26;;;;;;;10.60;4.30;;;21.60;99.90;;;;;;5116831;27;20201;-48
2023/05/27 11:11:05;;;;;;;15.73;5.23;;;21.60;99.90;;;;;;5135466;27;20586;-48
2023/05/27 11:13:35;;;;;;;10.33;4.20;;;21.60;99.90;;;;;;5135318;27;20208;-48
2023/05/27 11:16:04;;;;;;;15.10;5.07;;;21.70;99.90;;;;;;5135294;27;20595;-48
2023/05/27 11:18:46;;;;;;;12.80;4.97;;;21.80;99.90;;;;;;5135001;27;20630;-48
2023/05/27 11:21:14;;;;;;;11.77;4.90;;;21.90;99.90;;;;;;5135304;27;20650;-48
2023/05/27 11:23:48;;;;;;;12.30;4.70;;;21.80;99.90;;;;;;5116509;27;20251;-48
2023/05/27 11:26:19;;;;;;;12.00;4.30;;;21.70;99.90;;;;;;5135252;27;20173;-48
2023/05/27 11:28:56;;;;;;;12.27;4.33;;;21.60;99.90;;;;;;5135141;27;20201;-47
2023/05/27 11:31:30;;;;;;;12.15;4.70;;;21.50;99.90;;;;;;5134832;27;20186;-47
2023/05/27 11:33:57;;;;;;;9.40;4.43;;;21.70;99.90;;;;;;5134923;27;20614;-48
2023/05/27 11:36:26;;;;;;;16.02;4.82;;;22.00;99.90;;;;;;5134985;27;20185;-48
2023/05/27 11:38:57;;;;;;;16.60;4.57;;;22.30;99.90;;;;;;5134906;27;20541;-47
2023/05/27 11:41:28;;;;;;;13.37;3.93;;;22.60;99.90;;;;;;5134926;27;20197;-48
2023/05/27 11:44:05;;;;;;;12.00;4.60;;;22.80;99.90;;;;;;5134711;27;20284;-48
2023/05/27 11:46:38;;;;;;;17.60;5.00;;;23.10;99.90;;;;;;5134894;27;20162;-48
2023/05/27 11:49:04;;;;;;;13.17;4.83;;;23.10;99.90;;;;;;5134549;27;20193;-48
2023/05/27 11:51:31;;;;;;;14.30;5.07;;;23.00;99.90;;;;;;5134747;27;20186;-48
2023/05/27 11:53:58;;;;;;;18.20;5.03;;;23.10;99.90;;;;;;5134712;27;20602;-48
2023/05/27 11:56:25;;;;;;;14.33;4.90;;;23.00;99.90;;;;;;5134649;27;20189;-47
2023/05/27 11:58:50;;;;;;;16.07;5.27;;;22.90;99.90;;;;;;5134333;27;20177;-49
2023/05/27 12:01:16;;;;;;;15.40;4.63;;;23.00;99.90;;;;;;5134699;27;20176;-48
2023/05/27 12:03:42;;;;;;;11.23;4.47;;;22.80;99.90;;;;;;5134711;27;20220;-48
2023/05/27 12:06:07;;;;;;;10.53;4.60;;;22.70;99.90;;;;;;5134686;27;20177;-51
2023/05/27 12:08:33;;;;;;;13.10;5.53;;;22.70;99.90;;;;;;5134578;27;20210;-50
2023/05/27 12:10:58;;;;;;;12.40;4.80;;;22.70;99.90;;;;;;5134326;28;20189;-50
2023/05/27 12:13:24;;;;;;;10.67;4.20;;;22.50;99.90;;;;;;5133550;27;20193;-50
2023/05/27 12:15:50;;;;;;;15.47;4.57;;;22.50;99.90;;;;;;5134205;28;20692;-51
2023/05/27 12:18:16;;;;;;;12.20;4.80;;;22.60;99.90;;;;;;5134492;28;20219;-50
2023/05/27 12:20:43;;;;;;;14.47;4.73;;;22.60;99.90;;;;;;5134501;28;20181;-50
2023/05/27 12:23:08;;;;;;;12.93;4.80;;;22.60;99.90;;;;;;5134438;28;20247;-50
2023/05/27 12:25:34;;;;;;;17.60;5.40;;;22.90;99.90;;;;;;5134180;28;20584;-50
2023/05/27 12:28:00;;;;;;;12.40;4.40;;;23.20;99.90;;;;;;5134102;28;20705;-51
2023/05/27 12:30:25;;;;;;;22.77;5.17;;;23.20;99.90;;;;;;5134067;28;20174;-50
2023/05/27 12:32:51;;;;;;;17.60;5.20;;;23.10;99.90;;;;;;5134350;28;20269;-50
2023/05/27 12:35:16;;;;;;;12.27;4.60;;;23.00;99.90;;;;;;5135015;28;20225;-50
2023/05/27 12:37:42;;;;;;;12.90;5.00;;;23.10;99.90;;;;;;5135276;28;20173;-50
2023/05/27 12:40:12;;;;;;;12.87;4.87;;;23.40;99.90;;;;;;5134312;28;20223;-50